Time;durP1;ratioP1;P1;durP2;ratioP2;P2;SDS_P1;SDS_P2;PMS_P1;PMS_P2;Temp;Humidity;BMP_temperature;BMP_pressure;BME280_temperature;BME280_humidity;BME280_pressure;Samples;Min_cycle;Max_cycle;Signal;HPM_P1;HPM_P2
2022/07/14 00:00:41;;;;;;;4.47;0.80;;;;;;;-141.50;100.00;63355.56;5052534;28;20053;-80
2022/07/14 00:03:08;;;;;;;1.83;0.80;;;;;;;-141.50;100.00;63355.56;5054095;28;20509;-80
2022/07/14 00:05:35;;;;;;;4.38;0.80;;;;;;;-141.50;100.00;63355.56;5053191;28;20115;-82
2022/07/14 00:08:03;;;;;;;1.55;0.80;;;;;;;-141.50;100.00;63355.56;5053644;28;20049;-80
2022/07/14 00:10:29;;;;;;;1.17;0.82;;;;;;;-141.50;100.00;63355.56;5053403;28;20091;-80
2022/07/14 00:12:56;;;;;;;1.33;0.77;;;;;;;-141.50;100.00;63355.56;5053788;28;20045;-81
2022/07/14 00:15:22;;;;;;;2.63;0.70;;;;;;;-141.50;100.00;63355.56;5054118;28;20057;-80
2022/07/14 00:17:50;;;;;;;2.63;0.90;;;;;;;-141.50;100.00;63355.56;5053367;28;20526;-79
2022/07/14 00:20:18;;;;;;;1.40;0.70;;;;;;;-141.50;100.00;63355.56;5053521;28;20049;-80
2022/07/14 00:22:45;;;;;;;1.55;0.70;;;;;;;-141.50;100.00;63355.56;5052668;28;20075;-79
2022/07/14 00:25:11;;;;;;;2.00;0.68;;;;;;;-141.50;100.00;63355.56;5051390;28;20088;-80
2022/07/14 00:27:38;;;;;;;2.45;0.90;;;;;;;-141.50;100.00;63355.56;5055475;28;20123;-80
2022/07/14 00:30:05;;;;;;;1.58;0.57;;;;;;;-141.50;100.00;63355.56;5053452;28;20048;-79
2022/07/14 00:32:33;;;;;;;3.05;0.77;;;;;;;-141.50;100.00;63355.56;5051821;28;20045;-81
2022/07/14 00:35:00;;;;;;;7.22;0.90;;;;;;;-141.50;100.00;63355.56;5052575;28;20056;-81
2022/07/14 00:37:27;;;;;;;1.75;0.80;;;;;;;-141.50;100.00;63355.56;5052962;28;20106;-80
2022/07/14 00:39:56;;;;;;;1.35;0.70;;;;;;;-141.50;100.00;63355.56;5051233;28;20080;-81
2022/07/14 00:42:33;;;;;;;2.47;0.70;;;;;;;-141.50;100.00;63355.56;5052598;28;20052;-80
2022/07/14 00:45:04;;;;;;;0.73;0.63;;;;;;;-141.50;100.00;63355.56;5052492;28;20497;-80
2022/07/14 00:47:32;;;;;;;2.20;0.85;;;;;;;-141.50;100.00;63355.56;5019701;28;20059;-81
2022/07/14 00:49:59;;;;;;;1.20;0.70;;;;;;;-141.50;100.00;63355.56;5052175;28;20045;-79
2022/07/14 00:52:28;;;;;;;1.80;0.75;;;;;;;-141.50;100.00;63355.56;5050343;28;20064;-82
2022/07/14 00:54:56;;;;;;;2.45;0.80;;;;;;;-141.50;100.00;63355.56;5032830;28;20045;-81
2022/07/14 00:57:23;;;;;;;2.90;0.80;;;;;;;-141.50;100.00;63355.56;5052300;28;20114;-82
2022/07/14 00:59:50;;;;;;;1.30;0.80;;;;;;;-141.50;100.00;63355.56;5052444;28;20138;-82
2022/07/14 01:02:18;;;;;;;2.67;1.00;;;;;;;-141.50;100.00;63355.56;5052721;28;20080;-81
2022/07/14 01:04:46;;;;;;;2.58;0.95;;;;;;;-141.50;100.00;63355.56;5032043;28;20365;-81
2022/07/14 01:07:14;;;;;;;3.30;1.00;;;;;;;-141.50;100.00;63355.56;5051719;28;20048;-80
2022/07/14 01:09:42;;;;;;;1.98;1.00;;;;;;;-141.50;100.00;63355.56;5050559;28;20049;-80
2022/07/14 01:12:09;;;;;;;3.40;1.05;;;;;;;-141.50;100.00;63355.56;5054561;28;20044;-81
2022/07/14 01:14:37;;;;;;;1.65;0.93;;;;;;;-141.50;100.00;63355.56;5070170;28;20048;-81
2022/07/14 01:17:06;;;;;;;2.67;1.40;;;;;;;-141.50;100.00;63355.56;5071162;28;20049;-81
2022/07/14 01:19:33;;;;;;;3.17;1.00;;;;;;;-141.50;100.00;63355.56;5069949;28;20057;-81
2022/07/14 01:22:01;;;;;;;1.90;1.13;;;;;;;-141.50;100.00;63355.56;5063977;28;20045;-80
2022/07/14 01:24:28;;;;;;;3.67;1.02;;;;;;;-141.50;100.00;63355.56;5052770;28;20049;-80
2022/07/14 01:26:55;;;;;;;3.13;1.00;;;;;;;-141.50;100.00;63355.56;5069922;28;20067;-81
2022/07/14 01:29:22;;;;;;;6.43;1.17;;;;;;;-141.50;100.00;63355.56;5068213;28;20095;-80
2022/07/14 01:31:48;;;;;;;3.05;1.20;;;;;;;-141.50;100.00;63355.56;5066649;28;20049;-81
2022/07/14 01:34:15;;;;;;;2.42;1.30;;;;;;;-141.50;100.00;63355.56;5048422;28;20067;-80
2022/07/14 01:36:41;;;;;;;3.75;1.38;;;;;;;-141.50;100.00;63355.56;5051488;28;20053;-80
2022/07/14 01:39:08;;;;;;;3.45;1.40;;;;;;;-141.50;100.00;63355.56;5050315;28;20049;-80
2022/07/14 01:41:37;;;;;;;2.53;1.20;;;;;;;-141.50;100.00;63355.56;5051252;28;20072;-80
2022/07/14 01:44:04;;;;;;;3.33;1.38;;;;;;;-141.50;100.00;63355.56;5053588;28;20583;-81
2022/07/14 01:46:31;;;;;;;3.25;1.30;;;;;;;-141.50;100.00;63355.56;5055021;28;20072;-83
2022/07/14 01:48:57;;;;;;;7.50;1.27;;;;;;;-141.50;100.00;63355.56;5000056;28;1117667;-82
2022/07/14 01:51:24;;;;;;;5.57;1.42;;;;;;;-141.50;100.00;63355.56;5035474;28;20083;-81
2022/07/14 01:53:51;;;;;;;3.88;1.30;;;;;;;-141.50;100.00;63355.56;5046130;28;20076;-80
2022/07/14 01:56:17;;;;;;;3.58;1.30;;;;;;;-141.50;100.00;63355.56;5056981;28;20136;-83
2022/07/14 01:58:44;;;;;;;2.83;1.20;;;;;;;-141.50;100.00;63355.56;5056795;28;20056;-82
2022/07/14 02:04:00;;;;;;;4.40;1.35;;;;;;;-141.50;100.00;63355.56;5071911;28;20045;-80
2022/07/14 02:06:29;;;;;;;3.20;1.42;;;;;;;-141.50;100.00;63355.56;5064062;28;20107;-82
2022/07/14 02:08:57;;;;;;;4.18;1.08;;;;;;;-141.50;100.00;63355.56;5056204;28;20135;-81
2022/07/14 02:14:10;;;;;;;5.63;1.30;;;;;;;-141.50;100.00;63355.56;5056745;28;20088;-81
2022/07/14 02:16:37;;;;;;;2.50;1.27;;;;;;;-141.50;100.00;63355.56;5057225;28;20045;-81
2022/07/14 02:19:04;;;;;;;2.88;1.50;;;;;;;-141.50;100.00;63355.56;5054524;28;20091;-81
2022/07/14 02:21:30;;;;;;;3.97;1.73;;;;;;;-141.50;100.00;63355.56;5051263;28;20055;-81
2022/07/14 02:23:57;;;;;;;4.88;1.70;;;;;;;-141.50;100.00;63355.56;5051368;28;20048;-80
2022/07/14 02:26:23;;;;;;;4.05;1.80;;;;;;;-141.50;100.00;63355.56;5054145;28;20122;-80
2022/07/14 02:28:50;;;;;;;3.35;1.80;;;;;;;-141.50;100.00;63355.56;5055901;28;20084;-81
2022/07/14 02:31:16;;;;;;;9.98;2.40;;;;;;;-141.50;100.00;63355.56;5054944;28;20105;-79
2022/07/14 02:33:43;;;;;;;4.47;2.50;;;;;;;-141.50;100.00;63355.56;5055647;28;20076;-80
2022/07/14 02:36:10;;;;;;;7.13;2.50;;;;;;;-141.50;100.00;63355.56;5056104;28;20077;-80
2022/07/14 02:38:36;;;;;;;6.32;2.50;;;;;;;-141.50;100.00;63355.56;5057919;28;20666;-80
2022/07/14 02:41:04;;;;;;;5.38;2.65;;;;;;;-141.50;100.00;63355.56;5036329;28;20203;-79
2022/07/14 02:43:32;;;;;;;5.93;2.97;;;;;;;-141.50;100.00;63355.56;5039520;28;20109;-80
2022/07/14 02:45:59;;;;;;;6.15;2.47;;;;;;;-141.50;100.00;63355.56;5057400;28;20053;-80
2022/07/14 02:48:26;;;;;;;4.35;2.53;;;;;;;-141.50;100.00;63355.56;5044268;28;20052;-79
2022/07/14 02:51:01;;;;;;;4.47;2.40;;;;;;;-141.50;100.00;63355.56;5033051;28;20053;-80
2022/07/14 02:53:29;;;;;;;4.47;2.50;;;;;;;-141.50;100.00;63355.56;5013473;28;20064;-79
2022/07/14 02:55:55;;;;;;;4.38;2.50;;;;;;;-141.50;100.00;63355.56;5033552;28;20437;-81
2022/07/14 02:58:23;;;;;;;10.18;2.40;;;;;;;-141.50;100.00;63355.56;5032847;28;20497;-80
2022/07/14 03:00:54;;;;;;;4.15;2.50;;;;;;;-141.50;100.00;63355.56;5016654;28;20639;-81
2022/07/14 03:03:22;;;;;;;6.28;2.60;;;;;;;-141.50;100.00;63355.56;5036472;28;20131;-81
2022/07/14 03:05:49;;;;;;;7.53;2.58;;;;;;;-141.50;100.00;63355.56;5043436;28;20049;-80
2022/07/14 03:08:17;;;;;;;6.60;2.50;;;;;;;-141.50;100.00;63355.56;5027296;28;20046;-81
2022/07/14 03:10:43;;;;;;;8.43;2.70;;;;;;;-141.50;100.00;63355.56;5044374;28;20118;-80
2022/07/14 03:13:10;;;;;;;7.30;2.47;;;;;;;-141.50;100.00;63355.56;5044675;28;20532;-80
2022/07/14 03:15:37;;;;;;;9.35;2.70;;;;;;;-141.50;100.00;63355.56;5043914;28;20049;-81
2022/07/14 03:18:04;;;;;;;6.75;2.95;;;;;;;-141.50;100.00;63355.56;5044866;28;20201;-79
2022/07/14 03:20:31;;;;;;;6.22;2.70;;;;;;;-141.50;100.00;63355.56;5045543;28;20589;-78
2022/07/14 03:22:58;;;;;;;5.35;2.55;;;;;;;-141.50;100.00;63355.56;5043261;28;20098;-81
2022/07/14 03:25:25;;;;;;;10.85;2.70;;;;;;;-141.50;100.00;63355.56;5052335;28;20099;-81
2022/07/14 03:27:51;;;;;;;5.80;2.70;;;;;;;-141.50;100.00;63355.56;5058539;28;20096;-79
2022/07/14 03:30:18;;;;;;;5.57;2.90;;;;;;;-141.50;100.00;63355.56;5047477;28;20048;-81
2022/07/14 03:32:45;;;;;;;7.18;2.97;;;;;;;-141.50;100.00;63355.56;5044087;28;20187;-78
2022/07/14 03:35:12;;;;;;;4.95;3.15;;;;;;;-141.50;100.00;63355.56;5048181;28;20049;-81
2022/07/14 03:37:38;;;;;;;6.75;2.78;;;;;;;-141.50;100.00;63355.56;5058745;28;20048;-80
2022/07/14 03:40:06;;;;;;;6.07;2.78;;;;;;;-141.50;100.00;63355.56;5052641;28;20045;-80
2022/07/14 03:42:33;;;;;;;7.43;2.80;;;;;;;-141.50;100.00;63355.56;5053168;28;20639;-80
2022/07/14 03:45:00;;;;;;;3.85;2.72;;;;;;;-141.50;100.00;63355.56;5053785;28;20056;-81
2022/07/14 03:47:26;;;;;;;7.22;2.75;;;;;;;-141.50;100.00;63355.56;5054308;28;20071;-81
2022/07/14 03:49:53;;;;;;;7.55;3.10;;;;;;;-141.50;100.00;63355.56;5053999;28;20239;-80
2022/07/14 03:52:20;;;;;;;6.57;3.05;;;;;;;-141.50;100.00;63355.56;5035667;28;20045;-81
2022/07/14 03:54:46;;;;;;;6.75;3.03;;;;;;;-141.50;100.00;63355.56;5036123;28;20486;-81
2022/07/14 03:57:14;;;;;;;7.38;3.10;;;;;;;-141.50;100.00;63355.56;5056948;28;20080;-79
2022/07/14 03:59:41;;;;;;;7.78;3.30;;;;;;;-141.50;100.00;63355.56;5038634;28;20044;-81
2022/07/14 04:02:11;;;;;;;9.63;3.50;;;;;;;-141.50;100.00;63355.56;5049626;28;20110;-79
2022/07/14 04:04:39;;;;;;;6.60;3.38;;;;;;;-141.50;100.00;63355.56;5052048;28;20071;-78
2022/07/14 04:07:07;;;;;;;7.35;3.30;;;;;;;-141.50;100.00;63355.56;5050240;28;20232;-78
2022/07/14 04:09:34;;;;;;;9.00;3.25;;;;;;;-141.50;100.00;63355.56;5051463;28;20064;-80
2022/07/14 04:12:01;;;;;;;6.43;3.45;;;;;;;-141.50;100.00;63355.56;5051578;28;20568;-80
2022/07/14 04:14:27;;;;;;;8.82;3.25;;;;;;;-141.50;100.00;63355.56;5052969;28;20053;-79
2022/07/14 04:16:55;;;;;;;7.25;3.50;;;;;;;-141.50;100.00;63355.56;5053026;28;20056;-79
2022/07/14 04:19:22;;;;;;;7.40;3.50;;;;;;;-141.50;100.00;63355.56;5051864;28;20464;-80
2022/07/14 04:21:48;;;;;;;5.65;3.35;;;;;;;-141.50;100.00;63355.56;5039069;28;20362;-77
2022/07/14 04:24:15;;;;;;;6.45;3.60;;;;;;;-141.50;100.00;63355.56;5029941;28;20080;-78
2022/07/14 04:26:42;;;;;;;5.47;3.20;;;;;;;-141.50;100.00;63355.56;5050327;28;20125;-77
2022/07/14 04:29:10;;;;;;;8.20;3.30;;;;;;;-141.50;100.00;63355.56;5029499;28;20076;-77
2022/07/14 04:31:36;;;;;;;11.40;3.42;;;;;;;-141.50;100.00;63355.56;5041391;28;20045;-78
2022/07/14 04:34:04;;;;;;;12.52;3.42;;;;;;;-141.50;100.00;63355.56;5046464;28;20129;-79
2022/07/14 04:36:30;;;;;;;5.15;3.30;;;;;;;-141.50;100.00;63355.56;5035765;28;20051;-77
2022/07/14 04:38:57;;;;;;;8.07;3.08;;;;;;;-141.50;100.00;63355.56;5038923;28;20118;-76
2022/07/14 04:41:25;;;;;;;6.15;3.70;;;;;;;-141.50;100.00;63355.56;5017333;28;20135;-77
2022/07/14 04:43:52;;;;;;;12.52;3.45;;;;;;;-141.50;100.00;63355.56;5041495;28;20443;-78
2022/07/14 04:46:19;;;;;;;12.88;4.00;;;;;;;-141.50;100.00;63355.56;5035762;28;20087;-77
2022/07/14 04:54:16;;;;;;;5.65;3.05;;;;;;;-141.50;100.00;63355.56;5047102;28;20041;-79
2022/07/14 04:56:42;;;;;;;9.45;3.17;;;;;;;-141.50;100.00;63355.56;5046357;28;20076;-77
2022/07/14 04:59:25;;;;;;;6.10;3.40;;;;;;;-141.50;100.00;63355.56;5037444;28;20053;-78
2022/07/14 05:01:52;;;;;;;7.03;3.00;;;;;;;-141.50;100.00;63355.56;5055568;28;20217;-78
2022/07/14 05:04:20;;;;;;;8.70;2.80;;;;;;;-141.50;100.00;63355.56;5058176;28;20599;-79
2022/07/14 05:06:49;;;;;;;8.65;2.78;;;;;;;-141.50;100.00;63355.56;5052649;28;20075;-79
2022/07/14 05:09:19;;;;;;;6.60;2.72;;;;;;;-141.50;100.00;63355.56;5061204;28;20057;-79
2022/07/14 05:11:45;;;;;;;5.55;3.20;;;;;;;-141.50;100.00;63355.56;5049130;28;20045;-79
2022/07/14 05:14:13;;;;;;;4.40;3.05;;;;;;;-141.50;100.00;63355.56;5049261;28;20052;-79
2022/07/14 05:16:39;;;;;;;7.85;3.53;;;;;;;-141.50;100.00;63355.56;5055579;28;20575;-80
2022/07/14 05:19:26;;;;;;;7.10;3.42;;;;;;;-141.50;100.00;63355.56;5045441;28;20052;-80
2022/07/14 05:21:53;;;;;;;6.30;3.50;;;;;;;-141.50;100.00;63355.56;5063305;28;20060;-79
2022/07/14 05:24:19;;;;;;;8.35;3.65;;;;;;;-141.50;100.00;63355.56;5059607;28;20045;-79
2022/07/14 05:26:46;;;;;;;5.70;3.38;;;;;;;-141.50;100.00;63355.56;5061711;28;20102;-79
2022/07/14 05:29:16;;;;;;;5.88;3.20;;;;;;;-141.50;100.00;63355.56;5038429;28;20068;-80
2022/07/14 05:31:43;;;;;;;11.48;3.28;;;;;;;-141.50;100.00;63355.56;5060821;28;20045;-78
2022/07/14 05:34:10;;;;;;;7.22;3.40;;;;;;;-141.50;100.00;63355.56;5055085;28;20060;-81
2022/07/14 05:36:37;;;;;;;9.07;3.47;;;;;;;-141.50;100.00;63355.56;5047354;28;20056;-80
2022/07/14 05:39:04;;;;;;;5.60;3.03;;;;;;;-141.50;100.00;63355.56;5031209;28;20494;-79
2022/07/14 05:41:30;;;;;;;5.88;3.28;;;;;;;-141.50;100.00;63355.56;5033491;28;20048;-80
2022/07/14 05:43:57;;;;;;;9.23;3.05;;;;;;;-141.50;100.00;63355.56;5032232;28;20087;-79
2022/07/14 05:46:24;;;;;;;8.90;3.22;;;;;;;-141.50;100.00;63355.56;5050318;28;20509;-78
2022/07/14 05:48:51;;;;;;;6.80;3.00;;;;;;;-141.50;100.00;63355.56;5046399;28;20119;-81
2022/07/14 05:51:20;;;;;;;6.65;2.78;;;;;;;-141.50;100.00;63355.56;5031067;28;20053;-81
2022/07/14 05:53:47;;;;;;;9.82;3.22;;;;;;;-141.50;100.00;63355.56;5047555;28;20059;-79
2022/07/14 05:56:17;;;;;;;7.38;2.85;;;;;;;-141.50;100.00;63355.56;5049593;28;20091;-79
2022/07/14 05:58:46;;;;;;;5.72;2.90;;;;;;;-141.50;100.00;63355.56;5049281;28;20079;-79
2022/07/14 06:01:13;;;;;;;4.85;2.78;;;;;;;-141.50;100.00;63355.56;5046436;28;20053;-79
2022/07/14 06:03:43;;;;;;;5.75;2.70;;;;;;;-141.50;100.00;63355.56;5049078;28;20102;-80
2022/07/14 06:06:09;;;;;;;6.70;3.10;;;;;;;-141.50;100.00;63355.56;5044199;28;20560;-79
2022/07/14 06:08:36;;;;;;;5.57;2.50;;;;;;;-141.50;100.00;63355.56;5027947;28;20406;-78
2022/07/14 06:11:03;;;;;;;7.40;2.55;;;;;;;-141.50;100.00;63355.56;5036280;28;20053;-80
2022/07/14 06:13:31;;;;;;;4.82;2.58;;;;;;;-141.50;100.00;63355.56;5035042;28;20048;-81
2022/07/14 06:15:59;;;;;;;6.05;3.00;;;;;;;-141.50;100.00;63355.56;5033522;28;20063;-80
2022/07/14 06:18:26;;;;;;;5.38;2.65;;;;;;;-141.50;100.00;63355.56;5043880;28;20053;-80
2022/07/14 06:20:53;;;;;;;3.88;2.42;;;;;;;-141.50;100.00;63355.56;5050240;28;20053;-78
2022/07/14 06:23:20;;;;;;;6.22;2.67;;;;;;;-141.50;100.00;63355.56;5049360;28;20475;-81
2022/07/14 06:25:47;;;;;;;4.35;2.55;;;;;;;-141.50;100.00;63355.56;5050982;28;20049;-80
2022/07/14 06:28:14;;;;;;;5.43;2.35;;;;;;;-141.50;100.00;63355.56;5051850;28;20452;-80
2022/07/14 06:30:41;;;;;;;5.65;2.70;;;;;;;-141.50;100.00;63355.56;5055862;28;20056;-80
2022/07/14 06:33:08;;;;;;;4.57;2.25;;;;;;;-141.50;100.00;63355.56;5060888;28;20294;-80
2022/07/14 06:35:40;;;;;;;4.25;2.50;;;;;;;-141.50;100.00;63355.56;5065956;28;20063;-78
2022/07/14 06:38:29;;;;;;;8.32;2.42;;;;;;;-141.50;100.00;63355.56;5065223;28;20057;-79
2022/07/14 06:40:56;;;;;;;4.85;2.22;;;;;;;-141.50;100.00;63355.56;5067489;28;20494;-80
2022/07/14 06:43:22;;;;;;;7.28;2.40;;;;;;;-141.50;100.00;63355.56;5051306;28;20052;-79
2022/07/14 06:45:50;;;;;;;3.90;2.20;;;;;;;-141.50;100.00;63355.56;5067187;28;20151;-80
2022/07/14 06:48:17;;;;;;;4.65;2.50;;;;;;;-141.50;100.00;63355.56;5057646;28;20588;-78
2022/07/14 06:50:44;;;;;;;5.35;2.40;;;;;;;-141.50;100.00;63355.56;5048037;28;20064;-78
2022/07/14 06:53:11;;;;;;;5.80;2.35;;;;;;;-141.50;100.00;63355.56;5047781;28;20049;-79
2022/07/14 06:55:38;;;;;;;3.47;2.20;;;;;;;-141.50;100.00;63355.56;5065473;28;20053;-78
2022/07/14 06:58:06;;;;;;;4.72;2.30;;;;;;;-141.50;100.00;63355.56;5064609;28;20049;-79
2022/07/14 07:00:33;;;;;;;5.85;2.30;;;;;;;-141.50;100.00;63355.56;5063505;28;20180;-78
2022/07/14 07:02:59;;;;;;;4.90;2.05;;;;;;;-141.50;100.00;63355.56;5062613;28;20114;-81
2022/07/14 07:08:13;;;;;;;5.50;2.33;;;;;;;-141.50;100.00;63355.56;5063241;28;20061;-80
2022/07/14 07:10:42;;;;;;;4.30;2.28;;;;;;;-141.50;100.00;63355.56;5061616;28;20095;-80
2022/07/14 07:13:09;;;;;;;3.67;2.10;;;;;;;-141.50;100.00;63355.56;5047608;28;20049;-81
2022/07/14 07:15:39;;;;;;;5.10;2.03;;;;;;;-141.50;100.00;63355.56;5066768;28;20092;-79
2022/07/14 07:18:07;;;;;;;5.60;2.00;;;;;;;-141.50;100.00;63355.56;5049256;28;20101;-80
2022/07/14 07:20:35;;;;;;;3.28;2.10;;;;;;;-141.50;100.00;63355.56;5057490;28;20053;-84
2022/07/14 07:23:04;;;;;;;3.50;1.90;;;;;;;-141.50;100.00;63355.56;5064062;28;20052;-83
2022/07/14 07:25:32;;;;;;;4.78;2.38;;;;;;;-141.50;100.00;63355.56;5041898;28;20067;-76
2022/07/14 07:27:59;;;;;;;4.45;2.22;;;;;;;-141.50;100.00;63355.56;5052676;28;20519;-80
2022/07/14 07:30:26;;;;;;;7.45;2.50;;;;;;;-141.50;100.00;63355.56;5051551;28;20422;-79
2022/07/14 07:32:53;;;;;;;9.00;2.72;;;;;;;-141.50;100.00;63355.56;5052019;28;20460;-77
2022/07/14 07:35:20;;;;;;;3.17;2.00;;;;;;;-141.50;100.00;63355.56;5059509;28;20074;-78
2022/07/14 07:37:47;;;;;;;4.45;2.30;;;;;;;-141.50;100.00;63355.56;5061274;28;20057;-78
2022/07/14 07:40:14;;;;;;;6.47;2.35;;;;;;;-141.50;100.00;63355.56;5049193;28;20639;-79
2022/07/14 07:42:41;;;;;;;4.82;2.33;;;;;;;-141.50;100.00;63355.56;5049787;28;20770;-79
2022/07/14 07:45:08;;;;;;;4.22;2.13;;;;;;;-141.50;100.00;63355.56;5049777;28;20451;-77
2022/07/14 07:47:35;;;;;;;3.65;2.30;;;;;;;-141.50;100.00;63355.56;5040818;28;20052;-78
2022/07/14 07:50:03;;;;;;;5.95;2.25;;;;;;;-141.50;100.00;63355.56;5042992;28;20057;-80
2022/07/14 07:52:29;;;;;;;6.57;2.00;;;;;;;-141.50;100.00;63355.56;5049343;28;20076;-79
2022/07/14 07:54:56;;;;;;;5.28;2.20;;;;;;;-141.50;100.00;63355.56;5050626;28;20072;-78
2022/07/14 07:57:43;;;;;;;4.90;2.50;;;;;;;-141.50;100.00;63355.56;5044761;28;20148;-79
2022/07/14 08:00:11;;;;;;;4.60;2.42;;;;;;;-141.50;100.00;63355.56;5013763;28;20144;-79
2022/07/14 08:02:49;;;;;;;6.93;2.72;;;;;;;-141.50;100.00;63355.56;5044108;28;20119;-79
2022/07/14 08:05:18;;;;;;;7.00;2.50;;;;;;;-141.50;100.00;63355.56;5048892;28;20110;-79
2022/07/14 08:08:07;;;;;;;5.90;2.45;;;;;;;-141.50;100.00;63355.56;5032664;28;20045;-78
2022/07/14 08:10:35;;;;;;;8.23;2.33;;;;;;;-141.50;100.00;63355.56;5047578;28;20114;-79
2022/07/14 08:13:02;;;;;;;5.03;2.30;;;;;;;-141.50;100.00;63355.56;5030997;28;20060;-79
2022/07/14 08:15:29;;;;;;;7.35;2.05;;;;;;;-141.50;100.00;63355.56;5047328;28;20052;-79
2022/07/14 08:17:56;;;;;;;4.18;2.20;;;;;;;-141.50;100.00;63355.56;5047725;28;20513;-79
2022/07/14 08:20:23;;;;;;;7.00;2.15;;;;;;;-141.50;100.00;63355.56;5047902;28;20175;-79
2022/07/14 08:22:51;;;;;;;4.10;2.33;;;;;;;-141.50;100.00;63355.56;5047682;28;20110;-79
2022/07/14 08:25:18;;;;;;;8.27;2.53;;;;;;;-141.50;100.00;63355.56;5046948;28;20399;-78
2022/07/14 08:27:44;;;;;;;8.63;2.40;;;;;;;-141.50;100.00;63355.56;5030541;28;20144;-79
2022/07/14 08:30:11;;;;;;;4.93;2.20;;;;;;;-141.50;100.00;63355.56;5047643;28;20053;-78
2022/07/14 08:32:42;;;;;;;6.10;2.35;;;;;;;-141.50;100.00;63355.56;5030439;28;20053;-79
2022/07/14 08:35:11;;;;;;;7.40;2.50;;;;;;;-141.50;100.00;63355.56;5047833;28;20106;-79
2022/07/14 08:37:37;;;;;;;4.18;2.17;;;;;;;-141.50;100.00;63355.56;5047291;28;20115;-78
2022/07/14 08:40:07;;;;;;;7.25;2.60;;;;;;;-141.50;100.00;63355.56;5059110;28;20087;-79
2022/07/14 08:42:35;;;;;;;7.38;2.15;;;;;;;-141.50;100.00;63355.56;5074320;28;20036;-78
2022/07/14 08:45:12;;;;;;;5.50;2.70;;;;;;;-141.50;100.00;63355.56;5067776;28;20052;-78
2022/07/14 08:47:40;;;;;;;6.15;2.60;;;;;;;-141.50;100.00;63355.56;5050122;28;20099;-78
2022/07/14 08:50:09;;;;;;;8.95;2.53;;;;;;;-141.50;100.00;63355.56;5029612;28;20085;-79
2022/07/14 08:52:36;;;;;;;6.35;2.50;;;;;;;-141.50;100.00;63355.56;5028214;28;20057;-78
2022/07/14 08:55:07;;;;;;;7.55;2.55;;;;;;;-141.50;100.00;63355.56;5047458;28;20068;-78
2022/07/14 08:57:35;;;;;;;3.83;2.50;;;;;;;-141.50;100.00;63355.56;5030503;28;20071;-78
2022/07/14 09:00:04;;;;;;;4.15;2.42;;;;;;;-141.50;100.00;63355.56;5047083;28;20654;-78
2022/07/14 09:02:31;;;;;;;4.95;2.60;;;;;;;-141.50;100.00;63355.56;5028492;28;20397;-78
2022/07/14 09:04:58;;;;;;;6.57;2.83;;;;;;;-141.50;100.00;63355.56;5048047;28;20045;-78
2022/07/14 09:07:37;;;;;;;5.70;2.63;;;;;;;-141.50;100.00;63355.56;5046937;28;20102;-79
2022/07/14 09:10:09;;;;;;;8.18;2.70;;;;;;;-141.50;100.00;63355.56;5045707;28;20615;-79
2022/07/14 09:12:37;;;;;;;6.95;2.40;;;;;;;-141.50;100.00;63355.56;5047630;28;20532;-76
2022/07/14 09:17:59;;;;;;;3.95;2.70;;;;;;;-141.50;100.00;63355.56;5049349;28;20048;-77
2022/07/14 09:20:31;;;;;;;9.95;2.80;;;;;;;-141.50;100.00;63355.56;5047296;28;20053;-77
2022/07/14 09:23:02;;;;;;;7.15;2.53;;;;;;;-141.50;100.00;63355.56;5046760;28;20057;-77
2022/07/14 09:25:39;;;;;;;7.82;2.60;;;;;;;-141.50;100.00;63355.56;5046789;28;20559;-77
2022/07/14 09:28:09;;;;;;;8.20;2.83;;;;;;;-141.50;100.00;63355.56;5039514;28;20057;-78
2022/07/14 09:30:35;;;;;;;5.78;2.78;;;;;;;-141.50;100.00;63355.56;5013585;28;20049;-78
2022/07/14 09:33:04;;;;;;;5.57;2.63;;;;;;;-141.50;100.00;63355.56;5035713;28;20045;-77
2022/07/14 09:35:34;;;;;;;10.65;2.67;;;;;;;-141.50;100.00;63355.56;5027951;28;20103;-77
2022/07/14 09:38:13;;;;;;;4.10;2.60;;;;;;;-141.50;100.00;63355.56;5016772;28;20056;-78
2022/07/14 09:40:39;;;;;;;5.35;2.53;;;;;;;-141.50;100.00;63355.56;5027488;28;20054;-78
2022/07/14 09:43:12;;;;;;;4.43;2.40;;;;;;;-141.50;100.00;63355.56;5027840;28;20486;-78
2022/07/14 09:45:45;;;;;;;4.53;2.58;;;;;;;-141.50;100.00;63355.56;5037322;28;20044;-77
2022/07/14 09:48:19;;;;;;;7.60;2.50;;;;;;;-141.50;100.00;63355.56;5047215;28;20198;-77
2022/07/14 09:50:54;;;;;;;6.63;2.47;;;;;;;-141.50;100.00;63355.56;5047229;28;20048;-78
2022/07/14 09:53:34;;;;;;;8.32;3.15;;;;;;;-141.50;100.00;63355.56;5046036;28;20437;-77
2022/07/14 09:56:06;;;;;;;9.23;2.88;;;;;;;-141.50;100.00;63355.56;5047194;28;20104;-78
2022/07/14 09:58:55;;;;;;;5.22;2.60;;;;;;;-141.50;100.00;63355.56;5047943;28;20469;-78
2022/07/14 10:01:24;;;;;;;5.90;2.83;;;;;;;-141.50;100.00;63355.56;5045267;28;20049;-78
2022/07/14 10:03:54;;;;;;;4.75;2.38;;;;;;;-141.50;100.00;63355.56;5048237;28;20077;-79
2022/07/14 10:06:21;;;;;;;7.80;2.78;;;;;;;-141.50;100.00;63355.56;5052087;28;20056;-78
2022/07/14 10:09:06;;;;;;;4.00;2.45;;;;;;;-141.50;100.00;63355.56;5034399;28;20768;-78
2022/07/14 10:11:34;;;;;;;5.97;2.60;;;;;;;-141.50;100.00;63355.56;5051446;28;20639;-78
2022/07/14 10:14:01;;;;;;;6.88;2.70;;;;;;;-141.50;100.00;63355.56;5052185;28;20051;-78
2022/07/14 10:16:33;;;;;;;3.88;2.22;;;;;;;-141.50;100.00;63355.56;5050882;28;20076;-79
2022/07/14 10:19:03;;;;;;;6.75;2.35;;;;;;;-141.50;100.00;63355.56;5051257;28;20052;-78
2022/07/14 10:21:39;;;;;;;6.47;2.50;;;;;;;-141.50;100.00;63355.56;5046771;28;20049;-77
2022/07/14 10:24:06;;;;;;;5.78;2.30;;;;;;;-141.50;100.00;63355.56;5030792;28;20136;-78
2022/07/14 10:26:34;;;;;;;6.10;2.33;;;;;;;-141.50;100.00;63355.56;5019412;28;20072;-78
2022/07/14 10:29:07;;;;;;;6.40;2.35;;;;;;;-141.50;100.00;63355.56;5028900;28;21544;-78
2022/07/14 10:32:11;;;;;;;10.52;2.38;;;;;;;-141.50;100.00;63355.56;5044093;28;20608;-78
2022/07/14 10:34:41;;;;;;;6.22;2.30;;;;;;;-141.50;100.00;63355.56;5043323;28;20051;-80
2022/07/14 10:37:18;;;;;;;4.78;2.15;;;;;;;-141.50;100.00;63355.56;5053955;28;20053;-80
2022/07/14 10:39:57;;;;;;;3.70;2.40;;;;;;;-141.50;100.00;63355.56;5051096;28;20052;-79
2022/07/14 10:42:54;;;;;;;7.78;2.40;;;;;;;-141.50;100.00;63355.56;5035932;28;20092;-81
2022/07/14 10:45:22;;;;;;;7.68;2.40;;;;;;;-141.50;100.00;63355.56;5055181;28;20041;-79
2022/07/14 10:47:51;;;;;;;5.78;2.22;;;;;;;-141.50;100.00;63355.56;5058227;28;20053;-81
2022/07/14 10:50:18;;;;;;;4.90;2.38;;;;;;;-141.50;100.00;63355.56;5054855;28;20095;-80
2022/07/14 10:52:54;;;;;;;5.68;2.30;;;;;;;-141.50;100.00;63355.56;5053232;28;20044;-81
2022/07/14 10:55:27;;;;;;;5.95;2.25;;;;;;;-141.50;100.00;63355.56;5054494;28;20045;-82
2022/07/14 10:57:59;;;;;;;6.32;2.53;;;;;;;-141.50;100.00;63355.56;5054929;28;20060;-79
2022/07/14 11:00:44;;;;;;;6.68;1.90;;;;;;;-141.50;100.00;63355.56;5055628;28;20207;-79
2022/07/14 11:03:17;;;;;;;5.75;2.50;;;;;;;-141.50;100.00;63355.56;5052716;28;20056;-83
2022/07/14 11:06:12;;;;;;;7.20;2.28;;;;;;;-141.50;100.00;63355.56;5055873;28;20095;-81
2022/07/14 11:09:23;;;;;;;4.60;2.40;;;;;;;-141.50;100.00;63355.56;5055053;28;20076;-80
2022/07/14 11:12:11;;;;;;;6.43;2.60;;;;;;;-141.50;100.00;63355.56;5052110;28;20056;-81
2022/07/14 11:14:40;;;;;;;4.20;2.13;;;;;;;-141.50;100.00;63355.56;5033725;28;20095;-81
2022/07/14 11:17:28;;;;;;;4.03;2.25;;;;;;;-141.50;100.00;63355.56;5051527;28;20057;-79
2022/07/14 11:19:54;;;;;;;8.13;2.60;;;;;;;-141.50;100.00;63355.56;5053448;28;20106;-80
2022/07/14 11:22:21;;;;;;;6.22;2.38;;;;;;;-141.50;100.00;63355.56;5056648;28;20087;-81
2022/07/14 11:24:56;;;;;;;6.28;2.55;;;;;;;-141.50;100.00;63355.56;5058713;28;20103;-80
2022/07/14 11:27:32;;;;;;;5.05;2.30;;;;;;;-141.50;100.00;63355.56;5062771;28;20052;-80
2022/07/14 11:30:35;;;;;;;12.52;2.38;;;;;;;-141.50;100.00;63355.56;5057372;28;20057;-78
2022/07/14 11:33:11;;;;;;;5.55;2.70;;;;;;;-141.50;100.00;63355.56;4977558;28;20066;-81
2022/07/14 11:38:25;;;;;;;7.38;2.88;;;;;;;-141.50;100.00;63355.56;5055577;28;20049;-80